Baudette, MN

10:19 PM CDT on May 06, 2015 (GMT -0500)
Baudette International | | Change Station
CLOSE
Current Station
Airport
Location: Baudette,
Elevation: 1083 ft
Nearby Weather Stations

Elev 1083 ft 48.73 °N, 94.61 °W | Updated 26 minutes ago

Overcast
Overcast
59 °F
Feels Like 59 °F
N
13
Wind Variable Wind from ESE

Today
High -- | Low -- °F
--% Chance of Precip.
Yesterday
High -- | Low -- °F
Precip. -- in
5:51 AM 8:41 PM
Waning Gibbous, 91% visible
Pressure 29.81 in
Visibility 9.0 miles
Clouds Scattered Clouds 4900 ft
Mostly Cloudy 6000 ft
Overcast 9000 ft
Dew Point 55 °F
Humidity 88%
Rainfall 0.09 in
Snow Depth Not available.
UV 0 out of 12
Pollen 9.70 out of 12
Air Quality Not available.
Flu Activity Sporadic
METAR KBDE 070253Z AUTO 12011KT 9SM -RA SCT049 BKN060 OVC090 15/13 A2981

More Conditions Fewer Conditions

Pressure 29.81 in
Visibility 9.0 miles
Clouds Scattered Clouds 4900 ft
Mostly Cloudy 6000 ft
Overcast 9000 ft
Dew Point 55 °F
Humidity 88%
Rainfall 0.09 in
Snow Depth Not available.
UV 0 out of 12
Pollen 9.70 out of 12
Air Quality Not available.
Flu Activity Sporadic
METAR KBDE 070253Z AUTO 12011KT 9SM -RA SCT049 BKN060 OVC090 15/13 A2981

More Conditions Fewer Conditions

10-Day Weather Forecast

Almanac

Astronomy

May. 06, 2015 Rise Set
Actual Time
Civil Twilight
Nautical Twilight
Astronomical Twilight
Moon
Length of Visible Light
Length of Day
Tomorrow will be .
, % of the Moon is Illuminated

Today's Extremes

State Highs State Lows

Community

WunderPhotos

Upload Photos

1,819,100 photos uploaded!

WunderBlogs® & News

Nearby

Air Quality

  Air Quality AQ Index Pollutant
Not available.

Snow Depth

Station Depth Elevation

Earthquake Activity

City Distance Mag. Time & Date
Minimum magnitude displayed is 2.5.

Coastal Water Temperatures

Place Temperature

Stations

Nearby Weather Stations

Station Location Temp. Windchill Dew Point Humidity Wind Precip. Elev Updated Type